Time;durP1;ratioP1;P1;durP2;ratioP2;P2;SDS_P1;SDS_P2;PMS_P1;PMS_P2;Temp;Humidity;BMP_temperature;BMP_pressure;BME280_temperature;BME280_humidity;BME280_pressure;Samples;Min_cycle;Max_cycle;Signal;HPM_P1;HPM_P2
2021/11/16 00:00:19;;;;;;;16.83;10.63;;;6.10;99.90;;;;;;5008149;28;20223;-50
2021/11/16 00:02:46;;;;;;;15.13;10.53;;;6.20;99.90;;;;;;5023552;28;20200;-46
2021/11/16 00:05:12;;;;;;;16.03;10.80;;;6.20;99.90;;;;;;5020247;28;20265;-50
2021/11/16 00:07:39;;;;;;;17.33;10.93;;;6.20;99.90;;;;;;5017770;28;20300;-49
2021/11/16 00:10:07;;;;;;;15.47;10.83;;;6.20;99.90;;;;;;5022814;28;20203;-47
2021/11/16 00:12:34;;;;;;;15.40;10.60;;;6.10;99.90;;;;;;5021097;28;20218;-46
2021/11/16 00:15:01;;;;;;;16.10;11.23;;;6.10;99.90;;;;;;5023425;28;20208;-49
2021/11/16 00:17:28;;;;;;;16.67;11.63;;;6.10;99.90;;;;;;5009008;28;20227;-46
2021/11/16 00:19:55;;;;;;;18.93;11.90;;;6.10;99.90;;;;;;5023541;28;20218;-50
2021/11/16 00:22:22;;;;;;;18.90;11.50;;;6.10;99.90;;;;;;5009253;28;20829;-46
2021/11/16 00:25:07;;;;;;;17.27;11.33;;;6.10;99.90;;;;;;5023496;28;20204;-51
2021/11/16 00:27:35;;;;;;;17.70;11.60;;;6.10;99.90;;;;;;5021207;28;20224;-51
2021/11/16 00:30:03;;;;;;;16.27;11.80;;;6.00;99.90;;;;;;5022525;28;20196;-52
2021/11/16 00:32:31;;;;;;;18.03;12.27;;;6.00;99.90;;;;;;5010546;28;20223;-48
2021/11/16 00:34:58;;;;;;;17.63;11.50;;;6.10;99.90;;;;;;5014006;28;20200;-50
2021/11/16 00:37:27;;;;;;;18.40;11.50;;;6.10;99.90;;;;;;5020935;28;20215;-48
2021/11/16 00:39:54;;;;;;;18.43;12.30;;;6.10;99.90;;;;;;5017107;28;20292;-50
2021/11/16 00:42:20;;;;;;;18.27;11.90;;;6.10;99.90;;;;;;5019792;28;20275;-46
2021/11/16 00:44:47;;;;;;;22.57;13.20;;;6.00;99.90;;;;;;5022208;28;20199;-50
2021/11/16 00:47:14;;;;;;;19.20;12.17;;;6.10;99.90;;;;;;5007776;28;20223;-48
2021/11/16 00:49:42;;;;;;;17.10;12.37;;;6.10;99.90;;;;;;5023427;28;20537;-47
2021/11/16 00:52:09;;;;;;;17.30;12.47;;;6.10;99.90;;;;;;5018709;28;20334;-47
2021/11/16 00:54:36;;;;;;;15.60;11.83;;;6.10;99.90;;;;;;5017805;28;20214;-49
2021/11/16 00:57:04;;;;;;;17.73;11.57;;;6.00;99.90;;;;;;5019928;28;20572;-51
2021/11/16 00:59:31;;;;;;;20.47;12.33;;;6.00;99.90;;;;;;5023118;28;20200;-48
2021/11/16 01:01:57;;;;;;;23.30;13.77;;;6.00;99.90;;;;;;5008290;28;20693;-49
2021/11/16 01:04:26;;;;;;;18.03;12.40;;;6.00;99.90;;;;;;5021595;28;20196;-46
2021/11/16 01:06:55;;;;;;;21.00;13.33;;;6.00;99.90;;;;;;5021520;28;20223;-52
2021/11/16 01:09:22;;;;;;;19.90;12.80;;;6.00;99.90;;;;;;5017078;28;20215;-46
2021/11/16 01:11:49;;;;;;;19.23;12.53;;;6.00;99.90;;;;;;5021947;28;20630;-50
2021/11/16 01:14:16;;;;;;;21.53;12.63;;;6.00;99.90;;;;;;5020108;28;20211;-48
2021/11/16 01:16:43;;;;;;;20.63;12.00;;;6.00;99.90;;;;;;5026068;28;20224;-47
2021/11/16 01:19:10;;;;;;;18.47;12.30;;;6.00;99.90;;;;;;5010815;28;20232;-49
2021/11/16 01:21:38;;;;;;;15.67;11.13;;;6.00;99.90;;;;;;5026403;28;20206;-47
2021/11/16 01:24:08;;;;;;;19.40;12.33;;;6.00;99.90;;;;;;5018719;28;20199;-48
2021/11/16 01:26:35;;;;;;;26.93;14.33;;;6.00;99.90;;;;;;5026610;28;20689;-47
2021/11/16 01:29:02;;;;;;;21.50;13.50;;;6.00;99.90;;;;;;5023522;28;20235;-51
2021/11/16 01:31:29;;;;;;;19.70;13.73;;;6.00;99.90;;;;;;5026111;28;20200;-46
2021/11/16 01:33:57;;;;;;;24.73;14.70;;;5.90;99.90;;;;;;5012803;28;20204;-46
2021/11/16 01:36:24;;;;;;;23.00;13.77;;;5.90;99.90;;;;;;5024883;28;20243;-51
2021/11/16 01:38:53;;;;;;;21.27;13.67;;;6.00;99.90;;;;;;5025135;28;20196;-50
2021/11/16 01:41:21;;;;;;;23.63;14.00;;;6.00;99.90;;;;;;5021218;28;20254;-49
2021/11/16 01:43:48;;;;;;;24.60;15.43;;;5.90;99.90;;;;;;5025883;28;20246;-47
2021/11/16 01:46:17;;;;;;;22.40;14.83;;;5.90;99.90;;;;;;5023289;28;20223;-48
2021/11/16 01:48:46;;;;;;;22.93;14.43;;;5.80;99.90;;;;;;5014183;28;20204;-48
2021/11/16 01:51:15;;;;;;;25.77;14.00;;;5.90;99.90;;;;;;5019673;28;20195;-46
2021/11/16 01:53:42;;;;;;;20.27;13.17;;;5.80;99.90;;;;;;5019597;28;20235;-48
2021/11/16 01:56:09;;;;;;;23.90;14.30;;;5.80;99.90;;;;;;5014296;28;20222;-47
2021/11/16 01:58:37;;;;;;;21.60;14.10;;;5.80;99.90;;;;;;5019755;28;20204;-50
2021/11/16 02:01:05;;;;;;;22.67;13.87;;;5.80;99.90;;;;;;5016068;28;20290;-53
2021/11/16 02:03:32;;;;;;;23.03;15.07;;;5.80;99.90;;;;;;5019539;28;20204;-47
2021/11/16 02:06:17;;;;;;;21.80;14.63;;;5.80;99.90;;;;;;5009877;28;20223;-51
2021/11/16 02:08:43;;;;;;;24.20;13.80;;;5.80;99.90;;;;;;5025762;28;20216;-49
2021/11/16 02:11:10;;;;;;;22.87;13.50;;;5.80;99.90;;;;;;5017844;28;21042;-47
2021/11/16 02:13:38;;;;;;;25.23;14.27;;;5.80;99.90;;;;;;5025617;28;20227;-48
2021/11/16 02:16:05;;;;;;;25.27;14.90;;;5.80;99.90;;;;;;5021973;28;20231;-49
2021/11/16 02:18:31;;;;;;;24.13;14.53;;;5.80;99.90;;;;;;5025928;28;20207;-48
2021/11/16 02:20:59;;;;;;;24.13;14.57;;;5.70;99.90;;;;;;5010286;28;20213;-51
2021/11/16 02:23:26;;;;;;;25.73;15.30;;;5.70;99.90;;;;;;5023750;28;20188;-46
2021/11/16 02:25:53;;;;;;;24.20;14.47;;;5.70;99.90;;;;;;5023978;28;20212;-51
2021/11/16 02:28:21;;;;;;;24.57;14.20;;;5.70;99.90;;;;;;5017237;28;20206;-46
2021/11/16 02:30:49;;;;;;;25.80;14.80;;;5.70;99.90;;;;;;5025026;28;20322;-47
2021/11/16 02:33:16;;;;;;;26.43;16.00;;;5.70;99.90;;;;;;5021025;28;20224;-50
2021/11/16 02:35:45;;;;;;;25.63;15.53;;;5.70;99.90;;;;;;5025625;28;20215;-49
2021/11/16 02:38:13;;;;;;;24.47;14.83;;;5.70;99.90;;;;;;5010607;28;20947;-50
2021/11/16 02:40:40;;;;;;;28.20;15.57;;;5.70;99.90;;;;;;5014011;28;20754;-47
2021/11/16 02:43:07;;;;;;;25.13;14.97;;;5.70;99.90;;;;;;5009604;28;20869;-48
2021/11/16 02:45:34;;;;;;;22.60;14.33;;;5.60;99.90;;;;;;5024504;28;20210;-48
2021/11/16 02:48:11;;;;;;;23.90;15.03;;;5.60;99.90;;;;;;5020579;28;20200;-49
2021/11/16 02:50:38;;;;;;;23.20;14.33;;;5.60;99.90;;;;;;5025253;28;20203;-51
2021/11/16 02:53:05;;;;;;;26.50;15.20;;;5.60;99.90;;;;;;5008646;28;20219;-45
2021/11/16 02:55:33;;;;;;;25.40;15.43;;;5.60;99.90;;;;;;5024991;28;20277;-48
2021/11/16 02:57:59;;;;;;;28.43;15.87;;;5.60;99.90;;;;;;5022080;28;20224;-48
2021/11/16 03:00:26;;;;;;;28.13;16.07;;;5.60;99.90;;;;;;5020205;28;20208;-50
2021/11/16 03:02:54;;;;;;;24.13;15.77;;;5.70;99.90;;;;;;5023062;28;20570;-48
2021/11/16 03:05:21;;;;;;;33.50;16.20;;;5.60;99.90;;;;;;5023321;28;20287;-50
2021/11/16 03:07:54;;;;;;;31.60;17.03;;;5.60;99.90;;;;;;5021718;28;20278;-50
2021/11/16 03:10:25;;;;;;;24.63;15.40;;;5.70;99.90;;;;;;5018535;28;20207;-47
2021/11/16 03:12:54;;;;;;;25.87;15.63;;;5.60;99.90;;;;;;5022995;28;20266;-49
2021/11/16 03:15:21;;;;;;;23.67;15.23;;;5.60;99.90;;;;;;5018523;28;20211;-48
2021/11/16 03:17:48;;;;;;;28.83;17.67;;;5.60;99.90;;;;;;5023861;28;20230;-52
2021/11/16 03:20:17;;;;;;;28.50;16.47;;;5.60;99.90;;;;;;5022030;28;20472;-46
2021/11/16 03:22:50;;;;;;;30.63;16.30;;;5.60;99.90;;;;;;5024520;28;20907;-51
2021/11/16 03:25:18;;;;;;;29.00;17.10;;;5.60;99.90;;;;;;5010433;28;20265;-46
2021/11/16 03:27:53;;;;;;;29.73;15.93;;;5.60;99.90;;;;;;5023719;28;20220;-50
2021/11/16 03:30:22;;;;;;;30.03;17.20;;;5.60;99.90;;;;;;5017844;28;20343;-46
2021/11/16 03:32:48;;;;;;;33.60;17.90;;;5.60;99.90;;;;;;5023165;28;20305;-48
2021/11/16 03:35:15;;;;;;;27.10;16.10;;;5.60;99.90;;;;;;5021484;28;20935;-47
2021/11/16 03:37:46;;;;;;;25.30;16.30;;;5.60;99.90;;;;;;5024152;28;20228;-47
2021/11/16 03:40:15;;;;;;;28.87;16.70;;;5.60;99.90;;;;;;5008836;28;20231;-49
2021/11/16 03:42:43;;;;;;;32.80;18.00;;;5.60;99.90;;;;;;5017442;28;20653;-48
2021/11/16 03:45:11;;;;;;;25.27;15.30;;;5.60;99.90;;;;;;5009456;28;20204;-51
2021/11/16 03:47:39;;;;;;;28.40;16.57;;;5.60;99.90;;;;;;5017670;28;20727;-46
2021/11/16 03:50:07;;;;;;;33.30;16.53;;;5.60;99.90;;;;;;5014077;28;20196;-47
2021/11/16 03:52:38;;;;;;;29.03;16.97;;;5.60;99.90;;;;;;5017458;28;20998;-47
2021/11/16 03:55:05;;;;;;;30.53;16.87;;;5.60;99.90;;;;;;5007890;28;20216;-46
2021/11/16 03:57:32;;;;;;;30.13;16.63;;;5.60;99.90;;;;;;5023564;28;20223;-46
2021/11/16 03:59:59;;;;;;;25.87;16.13;;;5.60;99.90;;;;;;5020909;28;20196;-48
2021/11/16 04:02:26;;;;;;;28.33;16.17;;;5.60;99.90;;;;;;5018533;28;20249;-51
2021/11/16 04:04:55;;;;;;;25.80;16.33;;;5.70;99.90;;;;;;5022103;28;20269;-53
2021/11/16 04:07:22;;;;;;;29.67;16.70;;;5.60;99.90;;;;;;5020855;28;20227;-56
2021/11/16 04:09:49;;;;;;;29.53;16.40;;;5.70;99.90;;;;;;5022908;28;20204;-53
2021/11/16 04:12:16;;;;;;;29.47;16.23;;;5.70;99.90;;;;;;5008475;28;20207;-55
2021/11/16 04:14:43;;;;;;;25.33;14.60;;;5.70;99.90;;;;;;5023544;28;20753;-55
2021/11/16 04:17:10;;;;;;;31.60;17.70;;;5.70;99.90;;;;;;5014987;28;20230;-55
2021/11/16 04:19:36;;;;;;;26.73;15.80;;;5.70;99.90;;;;;;5023505;28;20215;-56
2021/11/16 04:22:05;;;;;;;27.57;16.67;;;5.70;99.90;;;;;;5019581;28;20287;-56
2021/11/16 04:24:32;;;;;;;26.83;15.80;;;5.60;99.90;;;;;;5023556;28;20281;-54
2021/11/16 04:26:59;;;;;;;32.23;17.80;;;5.60;99.90;;;;;;5003824;28;20231;-54
2021/11/16 04:29:25;;;;;;;27.10;16.87;;;5.60;99.90;;;;;;5022360;28;20203;-56
2021/11/16 04:31:52;;;;;;;29.87;16.00;;;5.60;99.90;;;;;;5021444;28;20204;-56
2021/11/16 04:34:19;;;;;;;25.10;15.23;;;5.60;99.90;;;;;;5016880;28;20219;-56
2021/11/16 04:36:46;;;;;;;29.30;16.47;;;5.60;99.90;;;;;;5023037;28;20227;-55
2021/11/16 04:39:15;;;;;;;28.23;16.13;;;5.60;99.90;;;;;;5020291;28;20192;-55
2021/11/16 04:41:43;;;;;;;28.50;16.83;;;5.60;99.90;;;;;;5023301;28;20684;-52
2021/11/16 04:44:10;;;;;;;31.20;16.93;;;5.50;99.90;;;;;;5008047;28;20287;-54
2021/11/16 04:46:37;;;;;;;31.97;17.73;;;5.60;99.90;;;;;;5011849;28;20212;-54
2021/11/16 04:49:06;;;;;;;29.20;16.73;;;5.60;99.90;;;;;;5017198;28;20212;-56
2021/11/16 04:51:51;;;;;;;31.10;17.53;;;5.50;99.90;;;;;;5022054;28;20916;-55
2021/11/16 05:02:32;;;;;;;26.20;16.67;;;5.50;99.90;;;;;;5024147;28;20274;-55
2021/11/16 05:02:44;;;;;;;33.43;17.07;;;5.50;99.90;;;;;;5019305;28;20975;-54
2021/11/16 05:05:13;;;;;;;31.80;17.60;;;5.50;99.90;;;;;;5022018;28;20202;-54
2021/11/16 05:07:44;;;;;;;31.10;16.23;;;5.50;99.90;;;;;;5021754;28;20224;-55
2021/11/16 05:10:13;;;;;;;33.63;17.80;;;5.50;99.90;;;;;;5020358;28;20216;-56
2021/11/16 05:12:40;;;;;;;31.87;17.53;;;5.50;99.90;;;;;;5011033;28;20504;-53
2021/11/16 05:15:13;;;;;;;32.57;17.47;;;5.50;99.90;;;;;;5021859;28;20234;-53
2021/11/16 05:17:39;;;;;;;30.63;17.50;;;5.50;99.90;;;;;;5017105;28;20958;-55
2021/11/16 05:20:07;;;;;;;30.93;17.30;;;5.50;99.90;;;;;;5020791;28;20534;-56
2021/11/16 05:22:34;;;;;;;31.77;16.27;;;5.40;99.90;;;;;;5017054;28;20207;-57
2021/11/16 05:25:01;;;;;;;30.90;17.43;;;5.40;99.90;;;;;;5020572;28;20258;-55
2021/11/16 05:27:29;;;;;;;30.30;16.13;;;5.40;99.90;;;;;;5016949;28;20223;-57
2021/11/16 05:29:56;;;;;;;31.23;18.10;;;5.40;99.90;;;;;;5008603;28;20214;-54
2021/11/16 05:32:22;;;;;;;33.27;17.67;;;5.40;99.90;;;;;;5022047;28;20665;-57
2021/11/16 05:34:49;;;;;;;32.60;17.17;;;5.40;99.90;;;;;;5024931;28;20212;-54
2021/11/16 05:37:16;;;;;;;36.10;18.30;;;5.50;99.90;;;;;;5019741;28;20239;-55
2021/11/16 05:39:42;;;;;;;28.93;17.23;;;5.50;99.90;;;;;;5018440;28;20207;-56
2021/11/16 05:42:09;;;;;;;30.47;17.17;;;5.50;99.90;;;;;;5015898;28;20212;-56
2021/11/16 05:44:38;;;;;;;30.37;15.93;;;5.50;99.90;;;;;;5008713;28;20200;-55
2021/11/16 05:47:08;;;;;;;30.47;17.00;;;5.50;99.90;;;;;;5013522;28;20231;-56
2021/11/16 05:49:34;;;;;;;31.40;18.13;;;5.60;99.90;;;;;;5029032;28;20703;-57
2021/11/16 05:52:03;;;;;;;28.60;16.30;;;5.60;99.90;;;;;;5016858;28;20673;-55
2021/11/16 05:54:32;;;;;;;29.33;16.20;;;5.60;99.90;;;;;;5011629;28;20732;-55
2021/11/16 05:57:00;;;;;;;30.40;16.27;;;5.60;99.90;;;;;;5022527;28;20220;-56
2021/11/16 05:59:32;;;;;;;27.00;16.03;;;5.60;99.90;;;;;;5011951;28;20299;-57
2021/11/16 06:02:02;;;;;;;28.80;17.23;;;5.60;99.90;;;;;;5023214;28;20273;-56
2021/11/16 06:04:28;;;;;;;30.57;17.17;;;5.60;99.90;;;;;;5018893;28;20204;-54
2021/11/16 06:06:55;;;;;;;34.17;16.67;;;5.60;99.90;;;;;;5018350;28;20235;-52
2021/11/16 06:09:22;;;;;;;29.80;16.20;;;5.60;99.90;;;;;;5026990;28;20556;-52
2021/11/16 06:11:49;;;;;;;30.13;16.10;;;5.70;99.90;;;;;;5020901;28;20192;-55
2021/11/16 06:14:16;;;;;;;25.63;16.10;;;5.60;99.90;;;;;;5020536;28;20717;-54
2021/11/16 06:16:42;;;;;;;26.00;16.50;;;5.60;99.90;;;;;;5008347;28;20330;-54
2021/11/16 06:19:10;;;;;;;28.33;15.43;;;5.60;99.90;;;;;;5019190;28;20203;-53
2021/11/16 06:21:37;;;;;;;22.83;14.43;;;5.60;99.90;;;;;;5016782;28;20919;-55
2021/11/16 06:24:04;;;;;;;21.07;13.77;;;5.60;99.90;;;;;;5020882;28;20204;-53
2021/11/16 06:26:33;;;;;;;21.50;13.77;;;5.60;99.90;;;;;;5026445;28;20227;-56
2021/11/16 06:29:00;;;;;;;19.00;13.07;;;5.60;99.90;;;;;;5026028;28;20282;-51
2021/11/16 06:31:29;;;;;;;23.87;14.70;;;5.60;99.90;;;;;;5009789;28;20696;-55
2021/11/16 06:33:58;;;;;;;22.53;13.60;;;5.60;99.90;;;;;;5019885;28;22653;-50
2021/11/16 06:36:30;;;;;;;24.37;13.93;;;5.60;99.90;;;;;;5025287;28;20227;-55
2021/11/16 06:38:57;;;;;;;24.07;14.07;;;5.60;99.90;;;;;;5021444;28;20270;-54
2021/11/16 06:41:23;;;;;;;20.60;12.93;;;5.60;99.90;;;;;;5025423;28;20868;-53
2021/11/16 06:43:50;;;;;;;20.73;13.40;;;5.60;99.90;;;;;;5021634;28;20188;-54
2021/11/16 06:46:17;;;;;;;19.43;13.13;;;5.60;99.90;;;;;;5020405;28;20220;-54
2021/11/16 06:48:44;;;;;;;21.87;14.00;;;5.60;99.90;;;;;;5004892;28;20423;-49
2021/11/16 06:51:10;;;;;;;21.87;13.70;;;5.60;99.90;;;;;;5022471;28;20246;-53
2021/11/16 06:53:39;;;;;;;22.20;13.00;;;5.60;99.90;;;;;;5014470;28;20204;-52
2021/11/16 06:56:06;;;;;;;23.70;14.97;;;5.60;99.90;;;;;;5024766;28;20227;-53
2021/11/16 06:58:35;;;;;;;26.23;14.27;;;5.60;99.90;;;;;;5015068;28;20195;-55
2021/11/16 07:01:04;;;;;;;21.93;13.83;;;5.60;99.90;;;;;;5024356;28;20200;-54
2021/11/16 07:03:32;;;;;;;21.27;12.77;;;5.60;99.90;;;;;;5009390;28;20289;-55
2021/11/16 07:06:03;;;;;;;20.87;13.00;;;5.60;99.90;;;;;;5017657;28;20711;-52
2021/11/16 07:08:32;;;;;;;22.47;13.13;;;5.60;99.90;;;;;;5024194;28;20959;-54
2021/11/16 07:11:12;;;;;;;20.53;13.80;;;5.60;99.90;;;;;;5018942;28;20215;-55
2021/11/16 07:13:58;;;;;;;20.63;13.03;;;5.60;99.90;;;;;;5022428;28;20218;-56
2021/11/16 07:16:26;;;;;;;22.73;14.07;;;5.60;99.90;;;;;;5022103;28;20231;-55
2021/11/16 07:18:56;;;;;;;21.43;13.00;;;5.60;99.90;;;;;;5003812;28;20208;-52
2021/11/16 07:21:25;;;;;;;21.70;13.20;;;5.60;99.90;;;;;;5015120;28;20788;-53
2021/11/16 07:24:09;;;;;;;19.23;13.33;;;5.60;99.90;;;;;;5022182;28;20246;-54
2021/11/16 07:26:39;;;;;;;24.23;13.10;;;5.60;99.90;;;;;;5009868;28;20228;-55
2021/11/16 07:29:08;;;;;;;20.40;13.77;;;5.60;99.90;;;;;;5021243;28;20331;-53
2021/11/16 07:31:38;;;;;;;24.53;13.93;;;5.60;99.90;;;;;;5009914;28;20208;-52
2021/11/16 07:34:15;;;;;;;20.97;13.23;;;5.60;99.90;;;;;;5009615;28;20223;-53
2021/11/16 07:36:53;;;;;;;22.70;14.17;;;5.70;99.90;;;;;;5013828;28;20216;-48
2021/11/16 07:39:20;;;;;;;23.33;13.57;;;5.60;99.90;;;;;;5022697;28;20195;-55
2021/11/16 07:41:48;;;;;;;20.03;13.80;;;5.60;99.90;;;;;;5015890;28;20216;-55
2021/11/16 07:44:16;;;;;;;22.67;13.80;;;5.60;99.90;;;;;;5024306;28;20204;-51
2021/11/16 07:46:53;;;;;;;24.27;14.17;;;5.60;99.90;;;;;;5014236;28;20222;-53
2021/11/16 07:49:19;;;;;;;25.03;14.83;;;5.60;99.90;;;;;;5008699;28;20234;-54
2021/11/16 07:51:46;;;;;;;24.53;15.40;;;5.70;99.90;;;;;;5016166;28;20208;-51
2021/11/16 07:54:13;;;;;;;24.60;14.47;;;5.70;99.90;;;;;;5023655;28;20220;-51
2021/11/16 07:56:40;;;;;;;26.60;14.67;;;5.70;99.90;;;;;;4999970;28;20235;-55
2021/11/16 07:59:10;;;;;;;21.77;14.50;;;5.70;99.90;;;;;;5016889;28;20204;-48
2021/11/16 08:01:40;;;;;;;20.97;13.97;;;5.70;99.90;;;;;;5013082;28;20751;-52
2021/11/16 08:04:18;;;;;;;21.53;14.27;;;5.70;99.90;;;;;;5019479;28;20208;-56
2021/11/16 08:06:55;;;;;;;27.00;14.37;;;5.70;99.90;;;;;;5016443;28;20254;-49
2021/11/16 08:09:27;;;;;;;22.97;13.73;;;5.70;99.90;;;;;;5016566;28;20258;-55
2021/11/16 08:12:07;;;;;;;22.30;13.77;;;5.70;99.90;;;;;;5012259;28;20250;-51
2021/11/16 08:14:36;;;;;;;21.90;14.20;;;5.70;99.90;;;;;;5017836;28;20212;-50
2021/11/16 08:17:06;;;;;;;24.90;14.23;;;5.70;99.90;;;;;;5012382;28;20244;-52
2021/11/16 08:19:35;;;;;;;24.03;15.23;;;5.70;99.90;;;;;;5015907;28;20919;-53
2021/11/16 08:22:06;;;;;;;27.73;15.43;;;5.70;99.90;;;;;;5006324;28;20215;-50
2021/11/16 08:24:35;;;;;;;23.80;14.80;;;5.70;99.90;;;;;;5009817;28;20210;-53
2021/11/16 08:27:09;;;;;;;28.57;15.63;;;5.70;99.90;;;;;;5006135;28;20225;-53
2021/11/16 08:29:40;;;;;;;23.90;14.00;;;5.70;99.90;;;;;;5013131;28;20200;-53
2021/11/16 08:32:11;;;;;;;27.27;15.50;;;5.70;99.90;;;;;;5010213;28;20204;-53
2021/11/16 08:34:40;;;;;;;26.03;15.60;;;5.60;99.90;;;;;;5005535;28;20936;-55
2021/11/16 08:37:09;;;;;;;25.73;14.67;;;5.70;99.90;;;;;;5011094;28;20712;-54
2021/11/16 08:39:39;;;;;;;26.30;15.70;;;5.60;99.90;;;;;;5017392;28;22887;-53
2021/11/16 08:42:15;;;;;;;24.63;15.17;;;5.60;99.90;;;;;;5024289;28;20200;-54
2021/11/16 08:44:52;;;;;;;25.00;15.20;;;5.60;99.90;;;;;;5017688;28;20206;-51
2021/11/16 08:47:20;;;;;;;26.83;16.07;;;5.70;99.90;;;;;;5010107;28;20227;-53
2021/11/16 08:49:47;;;;;;;28.00;15.73;;;5.60;99.90;;;;;;5025492;28;20200;-51
2021/11/16 08:52:16;;;;;;;26.03;15.90;;;5.60;99.90;;;;;;5003159;28;20211;-55
2021/11/16 08:54:54;;;;;;;26.33;15.93;;;5.70;99.90;;;;;;5021276;28;20217;-47
2021/11/16 08:57:22;;;;;;;22.27;14.87;;;5.70;99.90;;;;;;5008605;28;20235;-52
2021/11/16 08:59:50;;;;;;;23.67;15.40;;;5.70;99.90;;;;;;5023112;28;20196;-54
2021/11/16 09:02:21;;;;;;;27.17;16.77;;;5.70;99.90;;;;;;5012432;28;20219;-55
2021/11/16 09:04:47;;;;;;;25.37;15.90;;;5.70;99.90;;;;;;5015123;28;20196;-50
2021/11/16 09:07:24;;;;;;;23.83;15.17;;;5.70;99.90;;;;;;5013835;28;20794;-54
2021/11/16 09:09:59;;;;;;;26.43;16.13;;;5.60;99.90;;;;;;5020535;28;20668;-50
2021/11/16 09:12:39;;;;;;;27.00;17.00;;;5.70;99.90;;;;;;5010706;28;20927;-52
2021/11/16 09:15:09;;;;;;;29.40;16.23;;;5.70;99.90;;;;;;5018024;28;20229;-54
2021/11/16 09:17:35;;;;;;;25.47;15.83;;;5.70;99.90;;;;;;5012965;28;20265;-49
2021/11/16 09:20:19;;;;;;;30.20;17.37;;;5.80;99.90;;;;;;4992940;28;20211;-53
2021/11/16 09:22:47;;;;;;;26.30;16.23;;;5.80;99.90;;;;;;4998223;28;20912;-53
2021/11/16 09:25:22;;;;;;;29.50;17.57;;;5.80;99.90;;;;;;5013465;28;20207;-53
2021/11/16 09:27:50;;;;;;;29.00;16.80;;;5.80;99.90;;;;;;5011893;28;20220;-55
2021/11/16 09:30:19;;;;;;;27.33;16.47;;;5.80;99.90;;;;;;5013302;28;20215;-55
2021/11/16 09:33:08;;;;;;;31.67;18.30;;;5.80;99.90;;;;;;5019057;28;20231;-52
2021/11/16 09:35:47;;;;;;;29.07;16.03;;;5.80;99.90;;;;;;5008299;28;20216;-49
2021/11/16 09:38:20;;;;;;;32.20;17.87;;;5.70;99.90;;;;;;5010225;28;20207;-52
2021/11/16 09:40:50;;;;;;;27.30;15.53;;;5.70;99.90;;;;;;5017926;28;20215;-56
2021/11/16 09:43:16;;;;;;;28.80;16.53;;;5.70;99.90;;;;;;5014097;28;20217;-50
2021/11/16 09:45:47;;;;;;;29.57;18.30;;;5.70;99.90;;;;;;5012839;28;20213;-54
2021/11/16 09:48:22;;;;;;;30.53;17.37;;;5.70;99.90;;;;;;5006132;28;20208;-51
2021/11/16 09:50:49;;;;;;;30.57;17.20;;;5.70;99.90;;;;;;5017231;28;20210;-54
2021/11/16 09:53:17;;;;;;;29.27;17.53;;;5.70;99.90;;;;;;5021207;28;20192;-53
2021/11/16 09:55:43;;;;;;;32.53;18.13;;;5.70;99.90;;;;;;5004646;28;20659;-53
2021/11/16 09:58:22;;;;;;;29.17;17.57;;;5.70;99.90;;;;;;5008094;28;20211;-50
2021/11/16 10:00:51;;;;;;;28.20;17.63;;;5.70;99.90;;;;;;5009275;28;20207;-54
2021/11/16 10:03:21;;;;;;;30.77;17.73;;;5.80;99.90;;;;;;5002765;28;20200;-53
2021/11/16 10:05:52;;;;;;;31.83;18.30;;;5.80;99.90;;;;;;5013203;28;20531;-56
2021/11/16 10:08:20;;;;;;;32.03;17.37;;;5.80;99.90;;;;;;5014092;28;20215;-53
2021/11/16 10:10:48;;;;;;;31.40;17.67;;;5.70;99.90;;;;;;5010447;28;20212;-55
2021/11/16 10:13:18;;;;;;;35.13;18.23;;;5.70;99.90;;;;;;5023815;28;20289;-56
2021/11/16 10:15:46;;;;;;;30.77;18.20;;;5.70;99.90;;;;;;5015378;28;20220;-56
2021/11/16 10:18:17;;;;;;;36.33;18.60;;;5.70;99.90;;;;;;5016877;28;20207;-52
2021/11/16 10:20:47;;;;;;;32.70;18.80;;;5.70;99.90;;;;;;5019425;28;20199;-52
2021/11/16 10:23:16;;;;;;;29.30;17.60;;;5.70;99.90;;;;;;5004466;28;20212;-56
2021/11/16 10:25:51;;;;;;;34.40;20.30;;;5.70;99.90;;;;;;5010133;28;20692;-60
2021/11/16 10:28:18;;;;;;;36.33;18.30;;;5.70;99.90;;;;;;5021650;28;20196;-54
2021/11/16 10:30:45;;;;;;;32.57;18.60;;;5.70;99.90;;;;;;5010979;28;20200;-55
2021/11/16 10:33:16;;;;;;;35.83;18.07;;;5.70;99.90;;;;;;5010332;28;20305;-50
2021/11/16 10:35:47;;;;;;;35.37;18.60;;;5.80;99.90;;;;;;5015015;28;20731;-54
2021/11/16 10:38:16;;;;;;;31.53;18.07;;;5.80;99.90;;;;;;5007221;28;20207;-53
2021/11/16 10:40:43;;;;;;;33.53;18.17;;;5.80;99.90;;;;;;5022628;28;20207;-56
2021/11/16 10:43:10;;;;;;;29.73;17.30;;;5.80;99.90;;;;;;5013742;28;20207;-52
2021/11/16 10:45:42;;;;;;;32.40;17.43;;;5.80;99.90;;;;;;5016668;28;20200;-52
2021/11/16 10:48:12;;;;;;;36.60;18.93;;;5.80;99.90;;;;;;5006170;28;20242;-51
2021/11/16 10:50:42;;;;;;;34.33;19.57;;;5.80;99.90;;;;;;5015464;28;20290;-50
2021/11/16 10:53:12;;;;;;;36.70;19.03;;;5.80;99.90;;;;;;5014392;28;20196;-53
2021/11/16 10:55:44;;;;;;;33.07;18.80;;;5.80;99.90;;;;;;5020900;28;20270;-51
2021/11/16 10:58:12;;;;;;;34.80;18.97;;;5.80;99.90;;;;;;5013800;28;20316;-54
2021/11/16 11:00:43;;;;;;;32.17;18.13;;;5.80;99.90;;;;;;5001422;28;20220;-54
2021/11/16 11:03:13;;;;;;;35.87;19.37;;;5.80;99.90;;;;;;5016575;28;20228;-47
2021/11/16 11:05:41;;;;;;;35.07;17.93;;;5.80;99.90;;;;;;5001406;28;21017;-52
2021/11/16 11:08:08;;;;;;;31.93;18.53;;;5.80;99.90;;;;;;5015339;28;20238;-50
2021/11/16 11:10:44;;;;;;;33.23;18.57;;;5.80;99.90;;;;;;5021067;28;20200;-55
2021/11/16 11:13:22;;;;;;;39.67;19.70;;;5.90;99.90;;;;;;5009059;28;20215;-55
2021/11/16 11:15:49;;;;;;;38.40;19.70;;;5.90;99.90;;;;;;5015079;28;20822;-55
2021/11/16 11:18:29;;;;;;;36.07;18.97;;;5.90;99.90;;;;;;5014682;28;20235;-53
2021/11/16 11:20:58;;;;;;;37.20;19.60;;;5.90;99.90;;;;;;5010353;28;20212;-51
2021/11/16 11:23:27;;;;;;;37.73;19.07;;;5.80;99.90;;;;;;5012624;28;20215;-54
2021/11/16 11:26:16;;;;;;;35.63;19.40;;;5.80;99.90;;;;;;5017733;28;20204;-56
2021/11/16 11:28:50;;;;;;;38.07;20.27;;;5.80;99.90;;;;;;5003898;28;20231;-56
2021/11/16 11:31:28;;;;;;;40.53;21.47;;;5.80;99.90;;;;;;5020080;28;20215;-56
2021/11/16 11:33:56;;;;;;;41.13;20.67;;;5.80;99.90;;;;;;5014717;28;20760;-56
2021/11/16 11:36:26;;;;;;;41.83;21.60;;;5.80;99.90;;;;;;5010525;28;20224;-56
2021/11/16 11:38:54;;;;;;;32.53;19.13;;;5.80;99.90;;;;;;5012189;28;20211;-56
2021/11/16 11:41:23;;;;;;;42.23;20.70;;;5.80;99.90;;;;;;5028433;28;20682;-54
2021/11/16 11:44:08;;;;;;;38.13;19.83;;;5.80;99.90;;;;;;5005237;28;20200;-53
2021/11/16 11:46:49;;;;;;;38.17;20.63;;;5.80;99.90;;;;;;5013762;28;20212;-56
2021/11/16 11:49:16;;;;;;;36.43;18.73;;;5.80;99.90;;;;;;5020191;28;20204;-54
2021/11/16 11:51:45;;;;;;;36.37;18.87;;;5.80;99.90;;;;;;5014589;28;20195;-56
2021/11/16 11:54:12;;;;;;;34.87;19.33;;;5.80;99.90;;;;;;5022512;28;20217;-55
2021/11/16 11:56:39;;;;;;;39.17;19.90;;;5.80;99.90;;;;;;5010432;28;20211;-51
2021/11/16 11:59:06;;;;;;;38.50;19.70;;;5.70;99.90;;;;;;5012999;28;20574;-55
2021/11/16 12:01:33;;;;;;;38.87;20.30;;;5.70;99.90;;;;;;5017273;28;20754;-56
2021/11/16 12:04:00;;;;;;;36.90;19.80;;;5.70;99.90;;;;;;5007182;28;20205;-54
2021/11/16 12:06:29;;;;;;;39.77;20.27;;;5.70;99.90;;;;;;5017411;28;20223;-57
2021/11/16 12:08:59;;;;;;;35.40;19.90;;;5.70;99.90;;;;;;5015477;28;20313;-53
2021/11/16 12:11:26;;;;;;;38.60;19.27;;;5.70;99.90;;;;;;5015920;28;20200;-56
2021/11/16 12:13:55;;;;;;;37.97;19.60;;;5.80;99.90;;;;;;5007652;28;20223;-52
2021/11/16 12:16:33;;;;;;;36.30;18.77;;;5.70;99.90;;;;;;5021572;28;20235;-55
2021/11/16 12:19:06;;;;;;;37.63;18.20;;;5.70;99.90;;;;;;5012180;28;20207;-51
2021/11/16 12:21:35;;;;;;;35.53;18.50;;;5.70;99.90;;;;;;5011386;28;20211;-56
2021/11/16 12:24:05;;;;;;;32.67;17.33;;;5.70;99.90;;;;;;5026053;28;20211;-53
2021/11/16 12:26:35;;;;;;;36.70;19.37;;;5.70;99.90;;;;;;5004620;28;20219;-56
2021/11/16 12:29:14;;;;;;;38.03;17.83;;;5.70;99.90;;;;;;5000159;28;20200;-56
2021/11/16 12:31:41;;;;;;;33.33;18.57;;;5.80;99.90;;;;;;5020280;28;20874;-53
2021/11/16 12:34:09;;;;;;;36.50;18.97;;;5.80;99.90;;;;;;5000201;28;20212;-56
2021/11/16 12:36:48;;;;;;;41.73;20.50;;;5.80;99.90;;;;;;5018256;28;20228;-54
2021/11/16 12:39:19;;;;;;;39.83;20.00;;;5.80;99.90;;;;;;5016080;28;20195;-54
2021/11/16 12:41:48;;;;;;;37.33;18.17;;;5.80;99.90;;;;;;5018638;28;20207;-57
2021/11/16 12:44:17;;;;;;;38.40;18.20;;;5.80;99.90;;;;;;5000474;28;20955;-54
2021/11/16 12:46:46;;;;;;;35.37;17.67;;;5.80;99.90;;;;;;5011123;28;20736;-56
2021/11/16 12:49:32;;;;;;;37.43;18.73;;;5.80;99.90;;;;;;5003503;28;20239;-56
2021/11/16 12:52:01;;;;;;;35.53;18.40;;;5.80;99.90;;;;;;5015107;28;20204;-56